Terminal Aerodrome Forecast
Issued by NWS Atlanta, GA

Home | Current Version | Previous Version | Text Only | Print | Product List | Glossary On
Versions: 1 2 3 4 5 6 7 8 9 10 11 12 13 14 15
006
FTUS42 KFFC 201129
TAFCSG
TAF
KCSG 201129Z 2012/2112 VRB03KT P6SM FEW100
     FM201400 28003KT P6SM SCT035
     FM201600 29004KT P6SM SCT050
     FM202100 31008KT P6SM SCT060
     FM210100 VRB03KT P6SM SCT250=

USA.gov is the U.S. government's official web portal to all federal, state and local government web resources and services.